Time;durP1;ratioP1;P1;durP2;ratioP2;P2;SDS_P1;SDS_P2;PMS_P1;PMS_P2;Temp;Humidity;BMP_temperature;BMP_pressure;BME280_temperature;BME280_humidity;BME280_pressure;Samples;Min_cycle;Max_cycle;Signal;HPM_P1;HPM_P2
2022/05/30 09:29:39;;;;;;;0.00;0.00;;;29.00;56.70;;;;;;4931844;29;20260;-67
2022/05/30 09:32:24;;;;;;;0.00;0.00;;;30.00;58.10;;;;;;4955954;29;20039;-68
2022/05/30 09:34:53;;;;;;;0.00;0.00;;;30.00;53.50;;;;;;4956606;29;20019;-67
2022/05/30 09:37:27;;;;;;;0.00;0.00;;;29.70;54.20;;;;;;4930119;29;20350;-69
2022/05/30 09:39:53;;;;;;;0.00;0.00;;;30.40;57.10;;;;;;4926079;29;20813;-69
2022/05/30 09:42:32;;;;;;;0.00;0.00;;;31.20;58.50;;;;;;4911028;29;20032;-68
2022/05/30 09:45:24;;;;;;;0.00;0.00;;;29.70;49.70;;;;;;4926173;29;20216;-68
2022/05/30 09:48:15;;;;;;;0.00;0.00;;;28.80;51.90;;;;;;4930763;29;20527;-68
2022/05/30 09:50:44;;;;;;;0.00;0.00;;;29.00;55.40;;;;;;4909860;29;20039;-67
2022/05/30 09:53:10;;;;;;;0.00;0.00;;;27.90;51.80;;;;;;4911050;29;20070;-68
2022/05/30 09:55:43;;;;;;;0.00;0.00;;;27.10;54.90;;;;;;4926786;29;20036;-69
2022/05/30 09:58:10;;;;;;;0.00;0.00;;;26.00;56.30;;;;;;4927060;29;20032;-67
2022/05/30 10:00:54;;;;;;;0.00;0.00;;;25.00;56.30;;;;;;4929717;29;20677;-69
2022/05/30 10:03:32;;;;;;;0.00;0.00;;;24.50;60.20;;;;;;4927751;29;20265;-67
2022/05/30 10:06:19;;;;;;;0.00;0.00;;;23.90;57.90;;;;;;4927522;29;20056;-68
2022/05/30 10:08:46;;;;;;;0.00;0.00;;;23.50;57.60;;;;;;4909487;29;20054;-69
2022/05/30 10:11:33;;;;;;;0.00;0.00;;;23.10;61.20;;;;;;4912631;29;20327;-68
2022/05/30 10:13:59;;;;;;;0.00;0.00;;;22.80;64.30;;;;;;4926654;29;20031;-68
2022/05/30 10:16:33;;;;;;;0.00;0.00;;;22.60;64.20;;;;;;4927012;29;20031;-69
2022/05/30 10:19:09;;;;;;;0.00;0.00;;;22.90;64.00;;;;;;4926703;29;20047;-68
2022/05/30 10:28:14;;;;;;;0.00;0.00;;;22.80;63.30;;;;;;4925566;29;20621;-69
2022/05/30 10:30:19;;;;;;;0.00;0.00;;;26.70;60.60;;;;;;4919630;29;20158;-69
2022/05/30 10:32:53;;;;;;;0.00;0.00;;;28.90;60.00;;;;;;4918840;29;20383;-68
2022/05/30 10:35:37;;;;;;;0.00;0.00;;;30.90;56.40;;;;;;4940020;29;20086;-68
2022/05/30 10:38:17;;;;;;;0.00;0.00;;;32.80;52.80;;;;;;4942470;29;20099;-68
2022/05/30 10:40:43;;;;;;;0.00;0.00;;;34.20;53.30;;;;;;4943980;29;20353;-68
2022/05/30 10:43:18;;;;;;;0.00;0.00;;;35.60;49.40;;;;;;4945180;29;20028;-68
2022/05/30 10:45:57;;;;;;;0.00;0.00;;;36.80;51.10;;;;;;4944491;29;20214;-68
2022/05/30 10:48:31;;;;;;;0.00;0.00;;;37.70;46.00;;;;;;4928858;29;20044;-67
2022/05/30 10:51:11;;;;;;;0.00;0.00;;;38.20;44.20;;;;;;4925200;29;20028;-68
2022/05/30 10:53:40;;;;;;;0.00;0.00;;;38.90;44.60;;;;;;4944688;29;20034;-68
2022/05/30 10:56:28;;;;;;;0.00;0.00;;;39.30;42.10;;;;;;4944938;29;20086;-68
2022/05/30 10:59:25;;;;;;;0.00;0.00;;;39.90;42.90;;;;;;4944317;29;20237;-68
2022/05/30 11:01:56;;;;;;;0.00;0.00;;;40.00;40.20;;;;;;4940651;29;20027;-67
2022/05/30 11:04:30;;;;;;;0.00;0.00;;;40.30;40.50;;;;;;4928793;29;20048;-68
2022/05/30 11:07:03;;;;;;;0.00;0.00;;;38.70;39.50;;;;;;4941258;29;20259;-68
2022/05/30 11:09:59;;;;;;;0.00;0.00;;;37.70;36.40;;;;;;4944720;29;20020;-67
2022/05/30 11:12:31;;;;;;;0.00;0.00;;;35.60;39.00;;;;;;4938162;29;20052;-68
2022/05/30 11:15:14;;;;;;;0.00;0.00;;;33.40;38.20;;;;;;4935201;29;20024;-66
2022/05/30 11:17:57;;;;;;;0.00;0.00;;;31.70;41.10;;;;;;4943983;29;20337;-67
2022/05/30 11:20:41;;;;;;;0.00;0.00;;;30.20;43.50;;;;;;4941073;29;20019;-67
2022/05/30 11:23:08;;;;;;;0.00;0.00;;;28.90;44.20;;;;;;4943261;29;20034;-67
2022/05/30 11:26:14;;;;;;;0.00;0.00;;;28.10;46.40;;;;;;4935632;29;20030;-66
2022/05/30 11:29:07;;;;;;;0.00;0.00;;;27.40;47.50;;;;;;4943814;29;20047;-66
2022/05/30 11:31:48;;;;;;;0.00;0.00;;;26.60;49.30;;;;;;4942195;29;20098;-67
2022/05/30 11:34:25;;;;;;;0.00;0.00;;;25.80;48.20;;;;;;4944762;29;20027;-67
2022/05/30 11:36:50;;;;;;;0.00;0.00;;;25.20;50.50;;;;;;4944365;29;20019;-66
2022/05/30 11:39:28;;;;;;;0.00;0.00;;;25.00;51.20;;;;;;4944426;29;20094;-66
2022/05/30 11:42:12;;;;;;;;;;;24.60;50.20;;;;;;4940703;29;20062;-67
2022/05/30 11:44:37;;;;;;;0.00;0.00;;;24.10;49.90;;;;;;4942179;29;19929;-67
2022/05/30 11:47:24;;;;;;;0.00;0.00;;;24.10;50.30;;;;;;4944102;29;20318;-67
2022/05/30 11:50:41;;;;;;;0.00;0.00;;;24.00;51.50;;;;;;4943600;29;20043;-68
2022/05/30 11:53:06;;;;;;;0.00;0.00;;;23.90;52.40;;;;;;4854391;29;20277;-67
2022/05/30 11:56:06;;;;;;;0.00;0.00;;;23.90;52.50;;;;;;4922802;29;20036;-67
2022/05/30 11:59:06;;;;;;;0.00;0.00;;;23.60;50.80;;;;;;4924165;29;20031;-67
2022/05/30 12:01:37;;;;;;;0.00;0.00;;;23.50;51.20;;;;;;4944712;29;20023;-67
2022/05/30 12:04:31;;;;;;;0.00;0.00;;;23.40;52.60;;;;;;4939225;29;20035;-67
2022/05/30 12:07:18;;;;;;;0.00;0.00;;;23.40;52.40;;;;;;4935169;29;20038;-67
2022/05/30 12:09:47;;;;;;;0.00;0.00;;;23.20;51.40;;;;;;4947538;29;20071;-67
2022/05/30 12:12:27;;;;;;;0.00;0.00;;;23.30;55.00;;;;;;4947985;29;20039;-67
2022/05/30 12:15:08;;;;;;;0.00;0.00;;;23.20;54.00;;;;;;4944025;29;20325;-67
2022/05/30 12:24:11;;;;;;;0.00;0.00;;;23.30;52.90;;;;;;4944213;29;20062;-67
2022/05/30 12:27:01;;;;;;;0.00;0.00;;;23.20;54.40;;;;;;4947037;29;20019;-67
2022/05/30 12:29:39;;;;;;;0.00;0.00;;;22.90;52.80;;;;;;4944038;29;20203;-69
2022/05/30 12:32:16;;;;;;;0.00;0.00;;;22.80;52.20;;;;;;4947777;29;20031;-68
2022/05/30 12:34:57;;;;;;;0.00;0.00;;;22.50;53.60;;;;;;4937764;29;20023;-67
2022/05/30 12:37:44;;;;;;;0.00;0.00;;;22.50;53.30;;;;;;4944062;29;20035;-67
2022/05/30 12:40:13;;;;;;;0.00;0.00;;;22.40;55.40;;;;;;4946118;29;20023;-67
2022/05/30 12:42:43;;;;;;;0.00;0.00;;;22.30;55.40;;;;;;4946766;29;20027;-67
2022/05/30 12:45:33;;;;;;;0.00;0.00;;;22.20;54.20;;;;;;4938383;29;20259;-68
2022/05/30 12:48:08;;;;;;;0.00;0.00;;;21.90;53.60;;;;;;4946760;29;20028;-68
2022/05/30 12:50:34;;;;;;;0.00;0.00;;;21.60;54.40;;;;;;4943755;29;20098;-65
2022/05/30 12:53:05;;;;;;;0.00;0.00;;;21.60;54.00;;;;;;4946719;29;20235;-65
2022/05/30 12:55:49;;;;;;;0.00;0.00;;;21.50;57.10;;;;;;4938112;29;20099;-66
2022/05/30 12:58:41;;;;;;;0.00;0.00;;;21.60;55.50;;;;;;4936024;29;20051;-66
2022/05/30 13:01:28;;;;;;;0.00;0.00;;;21.40;54.80;;;;;;4944291;29;20070;-67
2022/05/30 13:04:06;;;;;;;0.00;0.00;;;21.30;56.60;;;;;;4946482;29;20070;-67
2022/05/30 13:06:41;;;;;;;0.00;0.00;;;21.30;57.10;;;;;;4937995;29;20024;-67
2022/05/30 13:09:19;;;;;;;0.00;0.00;;;21.20;57.70;;;;;;4944038;29;20243;-67
2022/05/30 13:12:01;;;;;;;0.00;0.00;;;21.10;57.90;;;;;;4945894;29;20028;-67
2022/05/30 13:14:36;;;;;;;0.00;0.00;;;20.80;57.80;;;;;;4946813;29;20037;-68
2022/05/30 13:17:24;;;;;;;0.00;0.00;;;20.60;59.20;;;;;;4943164;29;20026;-67
2022/05/30 13:20:00;;;;;;;0.00;0.00;;;20.60;59.50;;;;;;4933894;29;20034;-68
2022/05/30 13:22:54;;;;;;;0.00;0.00;;;20.70;60.80;;;;;;4947105;29;20032;-67
2022/05/30 13:25:42;;;;;;;0.00;0.00;;;20.80;59.20;;;;;;4945338;29;20395;-67
2022/05/30 13:28:18;;;;;;;0.00;0.00;;;20.80;58.90;;;;;;4931517;29;20345;-67
2022/05/30 13:30:44;;;;;;;0.00;0.00;;;20.90;59.60;;;;;;4936914;29;20036;-67
2022/05/30 13:33:13;;;;;;;0.00;0.00;;;20.90;59.20;;;;;;4946525;29;20054;-66
2022/05/30 13:35:40;;;;;;;0.00;0.00;;;20.90;59.50;;;;;;4945911;29;20294;-67
2022/05/30 13:38:10;;;;;;;0.00;0.00;;;20.90;59.80;;;;;;4937301;29;20035;-67
2022/05/30 13:40:35;;;;;;;0.00;0.00;;;20.80;59.10;;;;;;4943159;29;20066;-68
2022/05/30 13:43:05;;;;;;;0.00;0.00;;;20.90;61.80;;;;;;4946048;29;20019;-66
2022/05/30 13:45:41;;;;;;;0.00;0.00;;;20.90;61.30;;;;;;4946252;29;20222;-67
2022/05/30 13:48:10;;;;;;;0.00;0.00;;;20.90;60.40;;;;;;4930848;29;20058;-67
2022/05/30 13:50:46;;;;;;;0.00;0.00;;;21.00;58.90;;;;;;4942895;29;20054;-68
2022/05/30 13:53:14;;;;;;;0.00;0.00;;;20.90;59.30;;;;;;4943762;29;20034;-66
2022/05/30 13:55:52;;;;;;;0.00;0.00;;;20.90;59.80;;;;;;4945476;29;20327;-67
2022/05/30 13:58:18;;;;;;;0.00;0.00;;;20.80;60.80;;;;;;4946447;29;20043;-68
2022/05/30 14:00:44;;;;;;;0.00;0.00;;;20.80;59.70;;;;;;4945912;29;20263;-68
2022/05/30 14:03:10;;;;;;;0.00;0.00;;;20.80;59.50;;;;;;4946306;29;20056;-68
2022/05/30 14:05:39;;;;;;;0.00;0.00;;;20.80;60.90;;;;;;4936956;29;20095;-67
2022/05/30 14:08:30;;;;;;;0.00;0.00;;;20.90;61.40;;;;;;4942546;29;20039;-67
2022/05/30 14:11:06;;;;;;;0.00;0.00;;;21.00;62.90;;;;;;4934500;29;20035;-67
2022/05/30 14:13:59;;;;;;;0.00;0.00;;;21.00;61.10;;;;;;4946023;29;20031;-67
2022/05/30 14:16:42;;;;;;;0.00;0.00;;;21.10;61.10;;;;;;4935860;29;20215;-67
2022/05/30 14:19:24;;;;;;;0.00;0.00;;;21.30;59.30;;;;;;4942690;29;20132;-68
2022/05/30 14:21:54;;;;;;;0.00;0.00;;;21.20;60.80;;;;;;4945076;29;20079;-68
2022/05/30 14:24:32;;;;;;;0.00;0.00;;;21.30;59.90;;;;;;4935661;29;20023;-68
2022/05/30 14:26:59;;;;;;;0.00;0.00;;;21.40;58.70;;;;;;4945062;29;20239;-68
2022/05/30 14:29:39;;;;;;;0.00;0.00;;;21.40;61.00;;;;;;4945621;29;20122;-68
2022/05/30 14:32:25;;;;;;;0.00;0.00;;;21.50;59.00;;;;;;4941852;29;20051;-67
2022/05/30 14:35:04;;;;;;;0.00;0.00;;;21.50;60.00;;;;;;4936016;29;20079;-68
2022/05/30 14:37:43;;;;;;;0.00;0.00;;;21.50;60.30;;;;;;4945360;29;20141;-68
2022/05/30 14:40:40;;;;;;;0.00;0.00;;;21.70;62.20;;;;;;4942420;29;20024;-67
2022/05/30 14:43:28;;;;;;;0.00;0.00;;;21.80;56.90;;;;;;4941360;29;20032;-67
2022/05/30 14:46:12;;;;;;;0.00;0.00;;;21.80;58.00;;;;;;4933080;29;20028;-67
2022/05/30 14:48:44;;;;;;;0.00;0.00;;;21.70;57.00;;;;;;4941820;29;20042;-68
2022/05/30 14:51:29;;;;;;;0.00;0.00;;;21.70;58.50;;;;;;4930147;29;20059;-67
2022/05/30 14:54:11;;;;;;;0.00;0.00;;;21.70;57.50;;;;;;4944523;29;20042;-67
2022/05/30 14:56:39;;;;;;;0.00;0.00;;;21.60;57.50;;;;;;4929367;29;20023;-68
2022/05/30 14:59:06;;;;;;;0.00;0.00;;;21.40;58.50;;;;;;4941516;29;20034;-68
2022/05/30 15:01:32;;;;;;;0.00;0.00;;;21.30;58.80;;;;;;4935981;29;20027;-68
2022/05/30 15:04:04;;;;;;;0.00;0.00;;;21.20;57.70;;;;;;4944219;29;20039;-67
2022/05/30 15:06:43;;;;;;;0.00;0.00;;;21.20;61.00;;;;;;4945119;29;20144;-68
2022/05/30 15:09:14;;;;;;;0.00;0.00;;;21.20;60.60;;;;;;4941957;29;20036;-67
2022/05/30 15:11:41;;;;;;;0.00;0.00;;;21.00;60.40;;;;;;4934937;29;20033;-68
2022/05/30 15:14:13;;;;;;;0.00;0.00;;;21.00;59.30;;;;;;4935744;29;20024;-68
2022/05/30 15:16:38;;;;;;;0.00;0.00;;;21.00;60.20;;;;;;4941000;29;20020;-69
2022/05/30 15:19:04;;;;;;;0.00;0.00;;;21.00;59.50;;;;;;4935668;29;20026;-68
2022/05/30 15:21:32;;;;;;;0.00;0.00;;;21.00;59.60;;;;;;4944853;29;20031;-68
2022/05/30 15:23:59;;;;;;;0.00;0.00;;;20.90;58.80;;;;;;4944054;29;20278;-68
2022/05/30 15:26:25;;;;;;;0.00;0.00;;;20.90;58.10;;;;;;4944445;29;20055;-68
2022/05/30 15:28:52;;;;;;;0.00;0.00;;;20.80;59.30;;;;;;4934807;29;20369;-68
2022/05/30 15:31:22;;;;;;;0.00;0.00;;;20.80;60.30;;;;;;4944565;29;20039;-68
2022/05/30 15:33:48;;;;;;;0.00;0.00;;;20.70;59.70;;;;;;4934864;29;20078;-68
2022/05/30 15:36:14;;;;;;;0.00;0.00;;;20.70;60.20;;;;;;4943939;29;20361;-67
2022/05/30 15:38:39;;;;;;;0.00;0.00;;;20.60;60.20;;;;;;4934956;29;20024;-68
2022/05/30 15:41:05;;;;;;;0.00;0.00;;;20.60;60.90;;;;;;4944337;29;20047;-68
2022/05/30 15:43:31;;;;;;;0.00;0.00;;;20.50;61.90;;;;;;4944566;29;20023;-68
2022/05/30 15:45:57;;;;;;;0.00;0.00;;;20.50;59.50;;;;;;4934626;29;20023;-68
2022/05/30 15:48:25;;;;;;;0.00;0.00;;;20.60;59.80;;;;;;4944350;29;20035;-68
2022/05/30 15:50:51;;;;;;;0.00;0.00;;;20.60;60.60;;;;;;4934790;29;20035;-68
2022/05/30 15:58:52;;;;;;;0.00;0.00;;;20.60;59.80;;;;;;4942064;29;20091;-67
2022/05/30 16:01:18;;;;;;;0.00;0.00;;;20.60;59.10;;;;;;4935363;29;20028;-67
2022/05/30 16:03:43;;;;;;;0.00;0.00;;;20.60;59.50;;;;;;4943803;29;20030;-68
2022/05/30 16:06:10;;;;;;;0.00;0.00;;;20.50;60.10;;;;;;4943950;29;20024;-68
2022/05/30 16:08:44;;;;;;;0.00;0.00;;;20.40;60.70;;;;;;4944417;29;20078;-68
2022/05/30 16:11:13;;;;;;;0.00;0.00;;;20.40;60.10;;;;;;4929153;29;20043;-66
2022/05/30 16:13:40;;;;;;;0.00;0.00;;;20.30;60.00;;;;;;4934456;29;20020;-68
2022/05/30 16:16:06;;;;;;;0.00;0.00;;;20.30;60.30;;;;;;4943870;29;20020;-67
2022/05/30 16:18:32;;;;;;;0.00;0.00;;;20.20;59.40;;;;;;4935054;29;20366;-67
2022/05/30 16:21:06;;;;;;;0.00;0.00;;;20.20;60.50;;;;;;4934107;29;20364;-67
2022/05/30 16:23:32;;;;;;;0.00;0.00;;;20.20;59.80;;;;;;4944298;29;20024;-67
2022/05/30 16:26:03;;;;;;;0.00;0.00;;;20.10;59.80;;;;;;4943121;29;20046;-67
2022/05/30 16:28:29;;;;;;;0.00;0.00;;;20.00;60.60;;;;;;4944339;29;20103;-67
2022/05/30 16:30:55;;;;;;;0.00;0.00;;;19.90;60.80;;;;;;4943230;29;20035;-67
2022/05/30 16:33:23;;;;;;;0.00;0.00;;;19.90;61.20;;;;;;4934842;29;20023;-67
2022/05/30 16:35:50;;;;;;;0.00;0.00;;;19.80;61.70;;;;;;4943233;29;20019;-67
2022/05/30 16:38:18;;;;;;;0.00;0.00;;;19.80;62.60;;;;;;4944099;29;20028;-66
2022/05/30 16:40:44;;;;;;;0.00;0.00;;;19.70;62.90;;;;;;4943191;29;20032;-67
2022/05/30 16:43:10;;;;;;;0.00;0.00;;;19.70;62.90;;;;;;4944151;29;20054;-66
2022/05/30 16:45:36;;;;;;;0.00;0.00;;;19.70;62.80;;;;;;4944101;29;20071;-67
2022/05/30 16:48:02;;;;;;;0.00;0.00;;;19.60;62.10;;;;;;4920044;29;20024;-67
2022/05/30 16:50:28;;;;;;;0.00;0.00;;;19.60;63.40;;;;;;4938320;29;20030;-67
2022/05/30 16:52:54;;;;;;;0.00;0.00;;;19.70;62.30;;;;;;4946427;29;20031;-67
2022/05/30 16:55:20;;;;;;;0.00;0.00;;;19.70;62.10;;;;;;4947348;29;20040;-67
2022/05/30 16:57:47;;;;;;;0.00;0.00;;;19.70;63.70;;;;;;4946852;29;20107;-67
2022/05/30 17:00:14;;;;;;;0.00;0.00;;;19.80;63.70;;;;;;4947261;29;20032;-68
2022/05/30 17:02:43;;;;;;;0.00;0.00;;;19.80;63.40;;;;;;4937387;29;20094;-69
2022/05/30 17:05:09;;;;;;;0.00;0.00;;;19.80;62.10;;;;;;4946993;29;20357;-68
2022/05/30 17:07:35;;;;;;;0.00;0.00;;;19.80;64.20;;;;;;4947271;29;20031;-67
2022/05/30 17:10:02;;;;;;;0.00;0.00;;;19.80;64.30;;;;;;4937031;29;20053;-67
2022/05/30 17:12:29;;;;;;;0.00;0.00;;;19.80;64.50;;;;;;4946854;29;20237;-67
2022/05/30 17:14:56;;;;;;;0.00;0.00;;;19.80;64.90;;;;;;4937148;29;20019;-67
2022/05/30 17:17:21;;;;;;;0.00;0.00;;;19.80;64.90;;;;;;4946897;29;20123;-67
2022/05/30 17:19:50;;;;;;;0.00;0.00;;;19.80;65.40;;;;;;4946350;29;20023;-67
2022/05/30 17:22:17;;;;;;;0.00;0.00;;;19.80;63.60;;;;;;4947000;29;20035;-67
2022/05/30 17:24:43;;;;;;;0.00;0.00;;;19.80;63.00;;;;;;4946286;29;20020;-67
2022/05/30 17:29:54;;;;;;;0.00;0.00;;;19.70;63.30;;;;;;4944209;29;20102;-67
2022/05/30 17:32:27;;;;;;;0.00;0.00;;;19.70;64.20;;;;;;4937591;29;20039;-67
2022/05/30 17:34:54;;;;;;;0.00;0.00;;;19.60;65.40;;;;;;4946208;29;20192;-67
2022/05/30 17:37:20;;;;;;;0.00;0.00;;;19.60;64.40;;;;;;4937309;29;20031;-67
2022/05/30 17:39:46;;;;;;;0.00;0.00;;;19.50;64.40;;;;;;4945631;29;20270;-69
2022/05/30 17:42:11;;;;;;;0.00;0.00;;;19.50;63.90;;;;;;4946535;29;20027;-67
2022/05/30 17:44:37;;;;;;;0.00;0.00;;;19.50;63.60;;;;;;4946670;29;20258;-67
2022/05/30 17:47:23;;;;;;;0.00;0.00;;;19.40;64.00;;;;;;4945401;29;20046;-67
2022/05/30 17:50:04;;;;;;;0.00;0.00;;;19.40;64.80;;;;;;4943779;29;20034;-68
2022/05/30 17:52:51;;;;;;;0.00;0.00;;;19.30;65.50;;;;;;4937154;29;20036;-66
2022/05/30 17:55:17;;;;;;;0.00;0.00;;;19.30;65.60;;;;;;4944064;29;20054;-66
2022/05/30 17:57:43;;;;;;;0.00;0.00;;;19.20;66.00;;;;;;4945347;29;20120;-67
2022/05/30 18:00:16;;;;;;;0.00;0.00;;;19.20;65.70;;;;;;4946268;29;20020;-68
2022/05/30 18:02:42;;;;;;;0.00;0.00;;;19.20;64.80;;;;;;4942350;29;20030;-69
2022/05/30 18:05:09;;;;;;;0.00;0.00;;;19.20;65.10;;;;;;4946339;29;20209;-67
2022/05/30 18:08:10;;;;;;;0.00;0.00;;;19.10;65.60;;;;;;4945420;29;20031;-67
2022/05/30 18:10:57;;;;;;;0.00;0.00;;;19.10;65.60;;;;;;4928061;29;20227;-67
2022/05/30 18:13:32;;;;;;;0.00;0.00;;;19.10;65.20;;;;;;4944954;29;20302;-67
2022/05/30 18:16:07;;;;;;;0.00;0.00;;;19.00;64.30;;;;;;4944244;29;20425;-67
2022/05/30 18:21:42;;;;;;;0.00;0.00;;;18.90;65.80;;;;;;4945229;29;20071;-67
2022/05/30 18:24:36;;;;;;;0.00;0.00;;;18.90;65.50;;;;;;4928182;29;20316;-67
2022/05/30 18:27:03;;;;;;;0.00;0.00;;;18.90;66.90;;;;;;4944490;29;20074;-67
2022/05/30 18:29:29;;;;;;;0.00;0.00;;;18.80;65.20;;;;;;4945138;29;20200;-67
2022/05/30 18:32:00;;;;;;;0.00;0.00;;;18.80;65.70;;;;;;4944359;29;20258;-67
2022/05/30 18:34:26;;;;;;;0.00;0.00;;;18.80;65.80;;;;;;4944917;29;20095;-67
2022/05/30 18:37:14;;;;;;;0.00;0.00;;;18.70;65.90;;;;;;4944626;29;20255;-68
2022/05/30 18:39:54;;;;;;;0.00;0.00;;;18.70;64.80;;;;;;4928085;29;20031;-68
2022/05/30 18:43:15;;;;;;;0.00;0.00;;;18.70;64.70;;;;;;4945194;29;20020;-68
2022/05/30 18:45:45;;;;;;;0.00;0.00;;;18.70;65.80;;;;;;4867490;29;20143;-67
2022/05/30 18:48:34;;;;;;;0.00;0.00;;;18.70;66.00;;;;;;4930764;29;20298;-67
2022/05/30 18:51:00;;;;;;;0.00;0.00;;;18.60;65.20;;;;;;4927963;29;20086;-67
2022/05/30 18:53:26;;;;;;;0.00;0.00;;;18.60;65.20;;;;;;4945984;29;20063;-67
2022/05/30 18:56:09;;;;;;;0.00;0.00;;;18.50;66.00;;;;;;4945107;29;20306;-67
2022/05/30 18:58:45;;;;;;;0.00;0.00;;;18.50;66.20;;;;;;4928546;29;20095;-68
2022/05/30 19:01:11;;;;;;;0.00;0.00;;;18.50;67.00;;;;;;4928998;29;20028;-68
2022/05/30 19:03:37;;;;;;;0.00;0.00;;;18.40;68.00;;;;;;4945729;29;20026;-68
2022/05/30 19:06:04;;;;;;;0.00;0.00;;;18.40;68.30;;;;;;4945211;29;20020;-67
2022/05/30 19:08:32;;;;;;;0.00;0.00;;;18.40;69.00;;;;;;4945556;29;20164;-67
2022/05/30 19:11:02;;;;;;;0.00;0.00;;;18.40;68.60;;;;;;4944539;29;20043;-66
2022/05/30 19:13:37;;;;;;;0.00;0.00;;;18.40;68.90;;;;;;4928674;29;20020;-67
2022/05/30 19:19:01;;;;;;;0.00;0.00;;;18.30;69.50;;;;;;4944917;29;20022;-68
2022/05/30 19:21:27;;;;;;;0.00;0.00;;;18.30;69.70;;;;;;4945704;29;20083;-67
2022/05/30 19:23:53;;;;;;;0.00;0.00;;;18.30;70.90;;;;;;4945016;29;20315;-67
2022/05/30 19:26:18;;;;;;;0.00;0.00;;;18.30;70.60;;;;;;4945170;29;20020;-67
2022/05/30 19:28:46;;;;;;;0.00;0.00;;;18.30;71.00;;;;;;4945159;29;20054;-67
2022/05/30 19:31:14;;;;;;;0.00;0.00;;;18.20;71.70;;;;;;4945317;29;20039;-67
2022/05/30 19:33:40;;;;;;;0.00;0.00;;;18.20;71.20;;;;;;4945380;29;20338;-67
2022/05/30 19:36:06;;;;;;;0.00;0.00;;;18.20;71.60;;;;;;4927546;29;20034;-67
2022/05/30 19:38:31;;;;;;;0.00;0.00;;;18.20;71.20;;;;;;4945186;29;20027;-67
2022/05/30 19:41:00;;;;;;;0.00;0.00;;;18.20;71.50;;;;;;4927678;29;20098;-67
2022/05/30 19:43:29;;;;;;;0.00;0.00;;;18.10;71.70;;;;;;4945255;29;20047;-67
2022/05/30 19:45:56;;;;;;;0.00;0.00;;;18.10;73.00;;;;;;4927441;29;20091;-67
2022/05/30 19:48:22;;;;;;;0.00;0.00;;;18.00;72.50;;;;;;4945238;29;20192;-67
2022/05/30 19:50:48;;;;;;;0.00;0.00;;;18.00;72.60;;;;;;4944100;29;20035;-68
2022/05/30 19:53:14;;;;;;;0.00;0.00;;;18.00;73.10;;;;;;4928168;29;20058;-67
2022/05/30 19:55:41;;;;;;;0.00;0.00;;;18.00;73.70;;;;;;4945120;29;20034;-67
2022/05/30 19:58:09;;;;;;;0.00;0.00;;;17.90;73.70;;;;;;4944473;29;20292;-67
2022/05/30 20:00:35;;;;;;;0.00;0.00;;;17.90;74.30;;;;;;4912523;29;20043;-67
2022/05/30 20:03:00;;;;;;;0.00;0.00;;;17.90;74.40;;;;;;4927557;29;20324;-67
2022/05/30 20:05:29;;;;;;;0.00;0.00;;;17.90;75.20;;;;;;4944757;29;20019;-67
2022/05/30 20:07:55;;;;;;;0.00;0.00;;;17.90;74.90;;;;;;4944484;29;20211;-67
2022/05/30 20:10:22;;;;;;;0.00;0.00;;;17.80;75.70;;;;;;4928106;29;20306;-67
2022/05/30 20:12:49;;;;;;;0.00;0.00;;;17.80;75.20;;;;;;4944690;29;20043;-68
2022/05/30 20:15:15;;;;;;;0.00;0.00;;;17.80;74.90;;;;;;4944700;29;20016;-67
2022/05/30 20:17:43;;;;;;;0.00;0.00;;;17.80;75.20;;;;;;4927916;29;20031;-67
2022/05/30 20:20:12;;;;;;;0.00;0.00;;;17.80;75.60;;;;;;4944423;29;20175;-67
2022/05/30 20:22:42;;;;;;;0.00;0.00;;;17.70;75.70;;;;;;4947740;29;20207;-67
2022/05/30 20:25:10;;;;;;;0.00;0.00;;;17.80;75.80;;;;;;4930848;29;20323;-67
2022/05/30 20:27:37;;;;;;;0.00;0.00;;;17.80;75.90;;;;;;4948648;29;20030;-67
2022/05/30 20:30:05;;;;;;;0.00;0.00;;;17.70;75.90;;;;;;4948112;29;20111;-67
2022/05/30 20:32:31;;;;;;;0.00;0.00;;;17.70;76.50;;;;;;4931525;29;20214;-67
2022/05/30 20:34:56;;;;;;;0.00;0.00;;;17.70;77.30;;;;;;4947564;29;20019;-67
2022/05/30 20:37:22;;;;;;;0.00;0.00;;;17.70;77.80;;;;;;4948490;29;20299;-67
2022/05/30 20:39:48;;;;;;;0.00;0.00;;;17.70;77.50;;;;;;4948450;29;20027;-67
2022/05/30 20:45:04;;;;;;;0.00;0.00;;;17.70;78.60;;;;;;4947626;29;20067;-68
2022/05/30 20:47:38;;;;;;;0.00;0.00;;;17.70;79.40;;;;;;4948440;29;20020;-66
2022/05/30 20:50:05;;;;;;;0.00;0.00;;;17.60;79.20;;;;;;4930734;29;20075;-67
2022/05/30 20:52:31;;;;;;;0.00;0.00;;;17.60;78.40;;;;;;4931248;29;20195;-68
2022/05/30 20:54:57;;;;;;;0.00;0.00;;;17.60;78.10;;;;;;4947251;29;20090;-68
2022/05/30 20:57:22;;;;;;;0.00;0.00;;;17.60;79.00;;;;;;4931070;29;20071;-66
2022/05/30 20:59:48;;;;;;;0.00;0.00;;;17.60;79.80;;;;;;4931195;29;20016;-67
2022/05/30 21:02:14;;;;;;;0.00;0.00;;;17.60;78.70;;;;;;4947474;29;20027;-67
2022/05/30 21:04:39;;;;;;;0.00;0.00;;;17.50;79.00;;;;;;4947764;29;20047;-67
2022/05/30 21:07:06;;;;;;;0.00;0.00;;;17.60;80.00;;;;;;4930329;29;20081;-67
2022/05/30 21:09:31;;;;;;;0.00;0.00;;;17.60;80.60;;;;;;4948022;29;20054;-68
2022/05/30 21:11:57;;;;;;;0.00;0.00;;;17.60;81.40;;;;;;4947030;29;20027;-67
2022/05/30 21:14:23;;;;;;;0.00;0.00;;;17.50;80.50;;;;;;4947631;29;20023;-67
2022/05/30 21:17:15;;;;;;;0.00;0.00;;;17.50;81.30;;;;;;4930796;29;20029;-67
2022/05/30 21:20:04;;;;;;;0.00;0.00;;;17.40;80.30;;;;;;4937124;29;20043;-67
2022/05/30 21:22:34;;;;;;;0.00;0.00;;;17.40;81.10;;;;;;4930720;29;20051;-67
2022/05/30 21:25:04;;;;;;;0.00;0.00;;;17.40;80.90;;;;;;4930262;29;20071;-67
2022/05/30 21:27:30;;;;;;;0.00;0.00;;;17.30;80.60;;;;;;4947469;29;20043;-67
2022/05/30 21:29:56;;;;;;;0.00;0.00;;;17.30;81.70;;;;;;4929490;29;20063;-68
2022/05/30 21:32:38;;;;;;;0.00;0.00;;;17.30;82.50;;;;;;4947468;29;20212;-67
2022/05/30 21:35:06;;;;;;;0.00;0.00;;;17.30;81.00;;;;;;4929933;29;20029;-68
2022/05/30 21:37:32;;;;;;;0.00;0.00;;;17.20;81.00;;;;;;4947519;29;20028;-66
2022/05/30 21:39:58;;;;;;;0.00;0.00;;;17.20;81.50;;;;;;4929935;29;20272;-68
2022/05/30 21:42:24;;;;;;;0.00;0.00;;;17.20;82.10;;;;;;4947400;29;20035;-67
2022/05/30 21:44:50;;;;;;;0.00;0.00;;;17.10;82.20;;;;;;4930345;29;20026;-67
2022/05/30 21:47:16;;;;;;;0.00;0.00;;;17.10;82.00;;;;;;4929650;29;20103;-67
2022/05/30 21:49:41;;;;;;;0.00;0.00;;;17.00;82.20;;;;;;4930448;29;20035;-67
2022/05/30 21:52:07;;;;;;;0.00;0.00;;;17.00;81.80;;;;;;4946269;29;20036;-67
2022/05/30 21:54:32;;;;;;;0.00;0.00;;;17.00;81.80;;;;;;4946846;29;20318;-66
2022/05/30 21:59:42;;;;;;;0.00;0.00;;;16.90;81.90;;;;;;4946761;29;20075;-67
2022/05/30 22:02:13;;;;;;;0.00;0.00;;;16.90;82.30;;;;;;4946135;29;20305;-67
2022/05/30 22:04:41;;;;;;;0.00;0.00;;;16.90;82.50;;;;;;4947100;29;20020;-67
2022/05/30 22:07:08;;;;;;;0.00;0.00;;;16.80;83.10;;;;;;4946437;29;20016;-67
2022/05/30 22:09:34;;;;;;;0.00;0.00;;;16.80;83.10;;;;;;4929796;29;20333;-67
2022/05/30 22:12:00;;;;;;;0.00;0.00;;;16.80;83.00;;;;;;4945886;29;20036;-67
2022/05/30 22:14:27;;;;;;;0.00;0.00;;;16.70;84.00;;;;;;4945692;29;20255;-67
2022/05/30 22:16:53;;;;;;;0.00;0.00;;;16.70;84.40;;;;;;4927873;29;20100;-67
2022/05/30 22:19:19;;;;;;;0.00;0.00;;;16.70;85.00;;;;;;4945996;29;20026;-66
2022/05/30 22:21:45;;;;;;;0.00;0.00;;;16.70;85.30;;;;;;4946622;29;20222;-67
2022/05/30 22:24:10;;;;;;;0.00;0.00;;;16.70;85.70;;;;;;4929000;29;20027;-67
2022/05/30 22:26:37;;;;;;;0.00;0.00;;;16.60;84.80;;;;;;4946628;29;20028;-66
2022/05/30 22:29:05;;;;;;;0.00;0.00;;;16.60;85.50;;;;;;4945786;29;20203;-66
2022/05/30 22:31:33;;;;;;;0.00;0.00;;;16.60;85.40;;;;;;4946551;29;20036;-68
2022/05/30 22:33:58;;;;;;;0.00;0.00;;;16.50;86.10;;;;;;4945823;29;20027;-68
2022/05/30 22:36:25;;;;;;;0.00;0.00;;;16.50;85.30;;;;;;4946128;29;20051;-67
2022/05/30 22:38:51;;;;;;;0.00;0.00;;;16.50;85.40;;;;;;4946326;29;20043;-68
2022/05/30 22:41:17;;;;;;;0.00;0.00;;;16.40;85.30;;;;;;4945851;29;20043;-66
2022/05/30 22:43:43;;;;;;;0.00;0.00;;;16.40;86.00;;;;;;4946304;29;20086;-67
2022/05/30 22:46:10;;;;;;;0.00;0.00;;;16.40;86.30;;;;;;4944829;29;20028;-67
2022/05/30 22:48:36;;;;;;;0.00;0.00;;;16.40;86.20;;;;;;4929079;29;20206;-67
2022/05/30 22:51:13;;;;;;;0.00;0.00;;;16.30;87.00;;;;;;4945250;29;20043;-67
2022/05/30 22:53:43;;;;;;;0.00;0.00;;;16.30;87.10;;;;;;4945651;29;20020;-68
2022/05/30 22:56:09;;;;;;;0.00;0.00;;;16.30;87.00;;;;;;4928320;29;20023;-68
2022/05/30 22:58:35;;;;;;;0.00;0.00;;;16.30;87.30;;;;;;4928512;29;20019;-67
2022/05/30 23:01:03;;;;;;;0.00;0.00;;;16.20;87.60;;;;;;4944920;29;20098;-68
2022/05/30 23:03:28;;;;;;;0.00;0.00;;;16.20;87.90;;;;;;4945754;29;20023;-67
2022/05/30 23:05:54;;;;;;;0.00;0.00;;;16.20;87.90;;;;;;4945526;29;20314;-67
2022/05/30 23:08:20;;;;;;;0.00;0.00;;;16.10;87.80;;;;;;4945065;29;20333;-66
2022/05/30 23:11:00;;;;;;;0.00;0.00;;;16.10;88.20;;;;;;4945345;29;20306;-66
2022/05/30 23:13:51;;;;;;;0.00;0.00;;;16.10;88.10;;;;;;4945691;29;20043;-67
2022/05/30 23:16:23;;;;;;;0.00;0.00;;;16.10;87.70;;;;;;4944800;29;20023;-67